Time;durP1;ratioP1;P1;durP2;ratioP2;P2;SDS_P1;SDS_P2;PMS_P1;PMS_P2;Temp;Humidity;BMP_temperature;BMP_pressure;BME280_temperature;BME280_humidity;BME280_pressure;Samples;Min_cycle;Max_cycle;Signal;HPM_P1;HPM_P2
2023/04/13 00:00:20;;;;;;;0.00;0.00;;;;;;;-145.06;100.00;99224.81;10436695;28;20017;-75
2023/04/13 00:05:22;;;;;;;0.00;0.00;;;;;;;-145.06;100.00;99200.22;10434126;28;20044;-75
2023/04/13 00:10:22;;;;;;;0.00;0.00;;;;;;;-145.06;100.00;99161.31;10423346;28;20017;-77
2023/04/13 00:15:24;;;;;;;0.00;0.00;;;;;;;-145.06;100.00;99253.47;10423884;28;20095;-74
2023/04/13 00:20:24;;;;;;;0.00;0.00;;;;;;;-145.06;100.00;99261.69;10415994;28;20267;-77
2023/04/13 00:25:25;;;;;;;0.00;0.00;;;;;;;-145.06;100.00;99173.59;10415237;28;20032;-76
2023/04/13 00:30:25;;;;;;;0.00;0.00;;;;;;;-145.06;100.00;99243.25;10429677;28;20087;-76
2023/04/13 00:35:26;;;;;;;0.00;0.00;;;;;;;-145.06;100.00;99298.53;10423465;28;20021;-76
2023/04/13 00:40:27;;;;;;;0.00;0.00;;;;;;;-145.06;100.00;99235.03;10430412;28;20045;-76
2023/04/13 00:45:28;;;;;;;0.00;0.00;;;;;;;-145.06;100.00;99302.63;10429830;28;20022;-76
2023/04/13 00:50:29;;;;;;;0.00;0.00;;;;;;;-145.06;100.00;99392.75;10409682;28;20392;-76
2023/04/13 00:55:29;;;;;;;0.08;0.08;;;;;;;-145.06;100.00;99216.63;10406479;28;20404;-77
2023/04/13 01:00:29;;;;;;;0.00;0.00;;;;;;;-145.06;100.00;99339.50;10423198;28;20039;-76
2023/04/13 01:05:38;;;;;;;0.00;0.00;;;;;;;-145.06;100.00;99386.63;10418622;28;20042;-75
2023/04/13 01:11:02;;;;;;;0.00;0.00;;;;;;;-145.06;100.00;99347.69;10428730;28;20026;-76
2023/04/13 01:16:19;;;;;;;0.00;0.00;;;;;;;-145.06;100.00;99306.72;10421857;28;20071;-76
2023/04/13 01:21:24;;;;;;;0.00;0.00;;;;;;;-145.06;100.00;99302.63;10408075;28;20017;-76
2023/04/13 01:26:36;;;;;;;0.00;0.00;;;;;;;-145.06;100.00;99341.56;10430018;28;20025;-76
2023/04/13 01:31:37;;;;;;;0.00;0.00;;;;;;;-145.06;100.00;99450.13;10435759;28;21038;-75
2023/04/13 01:36:39;;;;;;;0.00;0.00;;;;;;;-145.06;100.00;99581.22;10406495;28;20036;-75
2023/04/13 01:41:39;;;;;;;0.00;0.00;;;;;;;-145.06;100.00;99519.75;10427529;28;20029;-76
2023/04/13 01:46:45;;;;;;;0.00;0.00;;;;;;;-145.06;100.00;99585.31;10432015;28;20051;-75
2023/04/13 01:51:49;;;;;;;0.00;0.00;;;;;;;-145.06;100.00;99589.41;10434431;28;20171;-76
2023/04/13 01:56:50;;;;;;;0.00;0.00;;;;;;;-145.06;100.00;99585.31;10442585;28;20026;-76
2023/04/13 02:01:50;;;;;;;0.00;0.00;;;;;;;-145.06;100.00;99581.22;10431161;28;20459;-75
2023/04/13 02:06:50;;;;;;;0.00;0.00;;;;;;;-145.06;100.00;99560.72;10425912;28;20155;-76
2023/04/13 02:11:51;;;;;;;0.00;0.00;;;;;;;-145.06;100.00;99562.78;10418082;28;20477;-75
2023/04/13 02:16:52;;;;;;;0.00;0.00;;;;;;;-145.06;100.00;99609.88;10419987;28;20029;-76
2023/04/13 02:21:52;;;;;;;0.00;0.00;;;;;;;-145.06;100.00;99616.03;10420358;28;20025;-76
2023/04/13 02:26:53;;;;;;;0.00;0.00;;;;;;;-145.06;100.00;99605.78;10421595;28;20029;-76
2023/04/13 02:31:53;;;;;;;0.00;0.00;;;;;;;-145.06;100.00;99624.22;10428506;28;20112;-75
2023/04/13 02:36:54;;;;;;;0.00;0.00;;;;;;;-145.06;100.00;99589.41;10406092;28;20021;-76
2023/04/13 02:41:54;;;;;;;0.00;0.00;;;;;;;-145.06;100.00;99605.78;10429814;28;20033;-75
2023/04/13 02:46:55;;;;;;;0.00;0.00;;;;;;;-145.06;100.00;99548.44;10421215;28;20026;-75
2023/04/13 02:51:55;;;;;;;0.00;0.00;;;;;;;-145.06;100.00;99577.13;10430398;28;20037;-76
2023/04/13 02:56:56;;;;;;;0.00;0.00;;;;;;;-145.06;100.00;99577.13;10443664;28;20025;-75
2023/04/13 03:01:57;;;;;;;0.00;0.00;;;;;;;-145.06;100.00;99622.19;10436124;28;20028;-75
2023/04/13 03:06:57;;;;;;;0.00;0.00;;;;;;;-145.06;100.00;99677.47;10418938;28;20022;-75
2023/04/13 03:11:58;;;;;;;0.00;0.00;;;;;;;-145.06;100.00;99644.72;10424127;28;20462;-75
2023/04/13 03:16:58;;;;;;;0.00;0.00;;;;;;;-145.06;100.00;99681.59;10421154;28;20029;-75
2023/04/13 03:22:02;;;;;;;0.00;0.00;;;;;;;-145.06;100.00;99585.31;10431155;28;20021;-75
2023/04/13 03:27:02;;;;;;;0.00;0.00;;;;;;;-145.06;100.00;99652.91;10452877;22;20131;-77
2023/04/13 03:32:03;;;;;;;0.00;0.00;;;;;;;-145.06;100.00;99585.31;10473828;28;20017;-77
2023/04/13 03:37:03;;;;;;;0.00;0.00;;;;;;;-145.06;100.00;99566.88;10422941;28;20017;-76
2023/04/13 03:42:04;;;;;;;0.03;0.03;;;;;;;-145.06;100.00;99591.44;10428358;28;20495;-77
2023/04/13 03:47:04;;;;;;;0.00;0.00;;;;;;;-145.06;100.00;99630.38;10433431;28;20482;-77
2023/04/13 03:52:05;;;;;;;0.17;0.10;;;;;;;-145.06;100.00;99470.59;10399446;28;20018;-77
2023/04/13 03:57:05;;;;;;;0.00;0.00;;;;;;;-145.06;100.00;99491.09;10409262;28;20020;-77
2023/04/13 04:02:06;;;;;;;0.00;0.00;;;;;;;-145.06;100.00;99671.34;10384879;28;20284;-77
2023/04/13 04:07:06;;;;;;;0.00;0.00;;;;;;;-145.06;100.00;99749.19;10415679;28;20013;-77
2023/04/13 04:12:06;;;;;;;0.00;0.00;;;;;;;-145.06;100.00;99634.47;10419121;28;20075;-76
2023/04/13 04:17:07;;;;;;;0.00;0.00;;;;;;;-145.06;100.00;99665.19;10406643;28;20021;-77
2023/04/13 04:22:08;;;;;;;0.00;0.00;;;;;;;-145.06;100.00;99687.72;10426743;28;20500;-77
2023/04/13 04:27:08;;;;;;;0.00;0.00;;;;;;;-145.06;100.00;99648.81;10391561;28;20060;-77
2023/04/13 04:32:09;;;;;;;0.00;0.00;;;;;;;-145.06;100.00;99603.75;10413600;28;20112;-77
2023/04/13 04:37:12;;;;;;;0.00;0.00;;;;;;;-145.06;100.00;99554.59;10399882;28;20104;-77
2023/04/13 04:42:13;;;;;;;0.00;0.00;;;;;;;-145.06;100.00;99482.88;10400859;28;20025;-77
2023/04/13 04:47:18;;;;;;;0.00;0.00;;;;;;;-145.06;100.00;99312.88;10408227;28;20049;-77
2023/04/13 04:52:19;;;;;;;0.00;0.00;;;;;;;-145.06;100.00;99257.56;10428622;28;20026;-77
2023/04/13 04:57:19;;;;;;;0.00;0.00;;;;;;;-145.06;100.00;99128.53;10389391;28;20013;-77
2023/04/13 05:02:20;;;;;;;0.00;0.00;;;;;;;-145.06;100.00;98989.28;10392471;28;20103;-77
2023/04/13 05:07:20;;;;;;;0.00;0.00;;;;;;;-145.06;100.00;99118.31;10413256;28;20262;-77
2023/04/13 05:12:21;;;;;;;0.00;0.00;;;;;;;-145.06;100.00;99095.78;10425966;28;20200;-77
2023/04/13 05:17:24;;;;;;;0.00;0.00;;;;;;;-145.06;100.00;98864.34;10419414;28;20013;-77
2023/04/13 05:22:24;;;;;;;0.08;0.08;;;;;;;-145.06;100.00;99192.03;10425268;28;20100;-77
2023/04/13 05:27:25;;;;;;;0.00;0.00;;;;;;;-145.06;100.00;99419.38;10433950;28;20094;-76
2023/04/13 05:32:25;;;;;;;0.00;0.00;;;;;;;-145.06;100.00;99558.69;10416694;28;20441;-77
2023/04/13 05:37:26;;;;;;;0.00;0.00;;;;;;;-145.06;100.00;99548.44;10423366;28;20500;-77
2023/04/13 05:42:26;;;;;;;0.10;0.10;;;;;;;-145.06;100.00;99425.53;10402394;28;20275;-77
2023/04/13 05:47:27;;;;;;;0.00;0.00;;;;;;;-145.06;100.00;99530.00;10419185;28;20268;-76
2023/04/13 05:52:28;;;;;;;0.00;0.00;;;;;;;-145.06;100.00;99427.59;10422423;28;20438;-76
2023/04/13 05:57:28;;;;;;;0.00;0.00;;;;;;;-145.06;100.00;99392.75;10423229;28;20087;-76
2023/04/13 06:02:30;;;;;;;0.00;0.00;;;;;;;-145.06;100.00;99435.78;10440658;28;20053;-76
2023/04/13 06:07:31;;;;;;;0.00;0.00;;;;;;;-145.06;100.00;99392.75;10419388;28;20025;-76
2023/04/13 06:12:32;;;;;;;0.00;0.00;;;;;;;-145.06;100.00;99360.00;10416549;28;20025;-76
2023/04/13 06:17:32;;;;;;;0.00;0.00;;;;;;;-145.06;100.00;99413.25;10436104;28;20028;-76
2023/04/13 06:22:33;;;;;;;0.00;0.00;;;;;;;-145.06;100.00;99472.66;10442863;28;20456;-76
2023/04/13 06:27:33;;;;;;;0.00;0.00;;;;;;;-145.06;100.00;99478.78;10438434;28;20031;-76
2023/04/13 06:32:33;;;;;;;0.00;0.00;;;;;;;-145.06;100.00;99368.19;10425394;28;20365;-76
2023/04/13 06:37:35;;;;;;;0.00;0.00;;;;;;;-145.06;100.00;99491.09;10407613;28;20760;-76
2023/04/13 06:42:35;;;;;;;0.00;0.00;;;;;;;-145.06;100.00;99540.25;10438765;28;20057;-76
2023/04/13 06:47:39;;;;;;;0.00;0.00;;;;;;;-145.06;100.00;99380.47;10438669;28;20021;-76
2023/04/13 06:52:44;;;;;;;0.00;0.00;;;;;;;-145.06;100.00;99364.09;10423711;28;20106;-76
2023/04/13 06:57:45;;;;;;;0.00;0.00;;;;;;;-145.06;100.00;99427.59;10427058;28;20028;-75
2023/04/13 07:02:45;;;;;;;0.00;0.00;;;;;;;-145.06;100.00;99421.44;10428951;28;20469;-76
2023/04/13 07:07:45;;;;;;;0.00;0.00;;;;;;;-145.06;100.00;99364.09;10429504;28;20079;-76
2023/04/13 07:12:46;;;;;;;0.00;0.00;;;;;;;-145.06;100.00;99429.63;10432198;28;20025;-75
2023/04/13 07:17:46;;;;;;;0.00;0.00;;;;;;;-145.06;100.00;99460.34;10418254;28;20021;-76
2023/04/13 07:22:46;;;;;;;0.00;0.00;;;;;;;-145.06;100.00;99476.75;10424664;28;20264;-76
2023/04/13 07:27:47;;;;;;;0.00;0.00;;;;;;;-145.06;100.00;99382.53;10421691;28;20437;-76
2023/04/13 07:32:48;;;;;;;0.00;0.00;;;;;;;-145.06;100.00;99343.59;10432517;28;20040;-76
2023/04/13 07:37:48;;;;;;;0.00;0.00;;;;;;;-145.06;100.00;99388.66;10427245;28;20024;-76
2023/04/13 07:42:49;;;;;;;0.00;0.00;;;;;;;-145.06;100.00;99386.63;10419471;28;20108;-75
2023/04/13 07:47:52;;;;;;;0.00;0.00;;;;;;;-145.06;100.00;99411.19;10421592;28;20067;-75
2023/04/13 07:52:52;;;;;;;0.00;0.00;;;;;;;-145.06;100.00;99370.22;10424519;28;20025;-75
2023/04/13 07:57:52;;;;;;;0.00;0.00;;;;;;;-145.06;100.00;99433.72;10424955;28;20025;-76
2023/04/13 08:02:53;;;;;;;0.00;0.00;;;;;;;-145.06;100.00;99374.31;10418044;28;20090;-75
2023/04/13 08:07:53;;;;;;;0.00;0.00;;;;;;;-145.06;100.00;99280.09;10396938;28;20215;-76
2023/04/13 08:12:54;;;;;;;0.00;0.00;;;;;;;-145.06;100.00;98997.47;10413303;28;20025;-76
2023/04/13 08:17:54;;;;;;;0.10;0.10;;;;;;;-145.06;100.00;98985.16;10437124;28;20098;-76
2023/04/13 08:22:54;;;;;;;0.00;0.00;;;;;;;-145.06;100.00;98960.59;10411549;28;20511;-76
2023/04/13 08:27:55;;;;;;;0.10;0.10;;;;;;;-145.06;100.00;98954.44;10424444;28;20028;-76
2023/04/13 08:32:56;;;;;;;0.00;0.00;;;;;;;-145.06;100.00;99017.94;10421793;28;20464;-76
2023/04/13 08:37:57;;;;;;;0.10;0.10;;;;;;;-145.06;100.00;99200.22;10415091;28;20021;-76
2023/04/13 08:42:59;;;;;;;0.10;0.10;;;;;;;-145.06;100.00;99276.00;10420542;28;20128;-76
2023/04/13 08:48:02;;;;;;;0.05;0.05;;;;;;;-145.06;100.00;99196.13;10420651;28;20276;-76
2023/04/13 08:53:03;;;;;;;0.00;0.00;;;;;;;-145.06;100.00;99255.53;10410874;28;20119;-76
2023/04/13 08:58:03;;;;;;;0.10;0.10;;;;;;;-145.06;100.00;99218.66;10395480;28;20032;-76
2023/04/13 09:03:06;;;;;;;0.10;0.10;;;;;;;-145.06;100.00;99300.59;10429811;28;20033;-76
2023/04/13 09:08:08;;;;;;;0.10;0.10;;;;;;;-145.06;100.00;98888.91;10395561;28;20025;-75
2023/04/13 09:13:08;;;;;;;0.32;0.32;;;;;;;-145.06;100.00;99108.06;10417907;28;20036;-76
2023/04/13 09:18:09;;;;;;;0.00;0.00;;;;;;;-145.06;100.00;99065.06;10434304;28;20025;-75
2023/04/13 09:23:14;;;;;;;0.00;0.00;;;;;;;-145.06;100.00;98989.28;10409404;28;20018;-75
2023/04/13 09:28:17;;;;;;;0.10;0.10;;;;;;;-145.06;100.00;99020.00;10396803;22;20485;-76
2023/04/13 09:33:17;;;;;;;0.10;0.10;;;;;;;-145.06;100.00;98927.81;10341600;28;20029;-76
2023/04/13 09:38:17;;;;;;;0.10;0.10;;;;;;;-145.06;100.00;98786.50;10335466;28;20033;-76
2023/04/13 09:43:18;;;;;;;0.10;0.10;;;;;;;-145.06;100.00;98983.13;10347150;28;20014;-76
2023/04/13 09:48:20;;;;;;;0.10;0.10;;;;;;;-145.06;100.00;98731.22;10341085;28;20050;-76
2023/04/13 09:53:21;;;;;;;0.10;0.10;;;;;;;-145.06;100.00;99126.50;10322421;28;20027;-77
2023/04/13 09:58:21;;;;;;;0.10;0.10;;;;;;;-145.06;100.00;99243.25;10319533;28;20026;-76
2023/04/13 10:03:22;;;;;;;0.10;0.10;;;;;;;-145.06;100.00;99208.41;10352750;28;20024;-76
2023/04/13 10:08:27;;;;;;;0.10;0.10;;;;;;;-145.06;100.00;99218.66;10339589;28;20665;-77
2023/04/13 10:13:33;;;;;;;0.10;0.10;;;;;;;-145.06;100.00;99220.72;10342778;28;20428;-75
2023/04/13 10:18:48;;;;;;;0.10;0.10;;;;;;;-145.06;100.00;99056.84;10348517;28;20477;-75
2023/04/13 10:23:49;;;;;;;0.00;0.00;;;;;;;-145.06;100.00;99056.84;10334152;28;20070;-75
2023/04/13 10:28:49;;;;;;;0.10;0.10;;;;;;;-145.06;100.00;99058.91;10341434;28;20512;-76
2023/04/13 10:33:50;;;;;;;0.10;0.10;;;;;;;-145.06;100.00;98802.91;10350128;28;20067;-76
2023/04/13 10:38:50;;;;;;;0.10;0.10;;;;;;;-145.06;100.00;98954.44;10353333;28;20018;-76
2023/04/13 10:44:19;;;;;;;0.10;0.10;;;;;;;-145.06;92.98;98819.28;10345767;28;20018;-76
2023/04/13 10:49:30;;;;;;;0.10;0.10;;;;;;;-145.06;92.20;98798.81;10324926;28;20382;-76
2023/04/13 10:54:31;;;;;;;0.10;0.10;;;;;;;-145.06;96.46;98581.72;10342827;28;20072;-76
2023/04/13 10:59:44;;;;;;;0.10;0.10;;;;;;;-145.06;87.22;98720.97;10346158;28;20388;-76
2023/04/13 11:04:47;;;;;;;0.10;0.10;;;;;;;-145.06;91.47;98893.00;10344148;28;20088;-76
2023/04/13 11:09:51;;;;;;;0.10;0.10;;;;;;;-145.06;94.28;98761.94;10349387;28;20076;-75
2023/04/13 11:14:52;;;;;;;0.00;0.00;;;;;;;-145.06;94.37;98729.16;10332841;28;20077;-76
2023/04/13 11:19:54;;;;;;;0.10;0.10;;;;;;;-145.06;90.98;98829.53;10347104;28;20030;-76
2023/04/13 11:25:06;;;;;;;0.10;0.10;;;;;;;-145.06;98.28;98809.03;10342430;28;20034;-76
2023/04/13 11:30:08;;;;;;;0.10;0.10;;;;;;;-145.06;100.00;98800.84;10344220;28;20480;-76
2023/04/13 11:35:10;;;;;;;0.10;0.10;;;;;;;-145.06;100.00;99017.94;10317182;28;20084;-75
2023/04/13 11:40:15;;;;;;;0.10;0.10;;;;;;;-145.06;100.00;98890.97;10323540;28;20117;-76
2023/04/13 11:45:16;;;;;;;0.10;0.10;;;;;;;-145.06;100.00;98954.44;10335285;28;20017;-76
2023/04/13 11:50:18;;;;;;;0.10;0.10;;;;;;;-145.06;100.00;99020.00;10323287;28;20112;-75
2023/04/13 11:55:18;;;;;;;0.03;0.03;;;;;;;-145.06;100.00;98987.22;10312379;28;20040;-76
2023/04/13 12:00:24;;;;;;;0.00;0.00;;;;;;;-145.06;100.00;98983.13;10338450;28;20022;-76
2023/04/13 12:05:26;;;;;;;0.10;0.10;;;;;;;-145.06;100.00;98942.16;10338732;28;20025;-76
2023/04/13 12:10:29;;;;;;;0.10;0.10;;;;;;;-145.06;99.66;98983.13;10317947;28;20027;-76
2023/04/13 12:15:32;;;;;;;0.00;0.00;;;;;;;-145.06;99.47;98960.59;10316786;28;20022;-76
2023/04/13 12:20:38;;;;;;;0.10;0.10;;;;;;;-145.06;94.46;98954.44;10331291;28;20027;-76
2023/04/13 12:25:38;;;;;;;0.10;0.10;;;;;;;-145.06;100.00;98827.47;10320638;28;20075;-75
2023/04/13 12:30:39;;;;;;;0.00;0.00;;;;;;;-145.06;94.33;98809.03;10332324;28;20025;-75
2023/04/13 12:35:39;;;;;;;0.10;0.10;;;;;;;-145.06;95.72;98950.34;10331603;28;20656;-75
2023/04/13 12:40:39;;;;;;;0.00;0.00;;;;;;;-145.06;91.81;98870.47;10333856;28;20041;-76
2023/04/13 12:45:40;;;;;;;0.10;0.10;;;;;;;-145.06;93.56;99003.59;10332322;28;20022;-76
2023/04/13 12:50:41;;;;;;;0.00;0.00;;;;;;;-145.06;100.00;99013.84;10340463;28;20537;-76
2023/04/13 12:55:42;;;;;;;0.00;0.00;;;;;;;-145.06;100.00;99044.56;10346938;28;20141;-77
2023/04/13 13:00:42;;;;;;;0.10;0.10;;;;;;;-145.06;100.00;98974.94;10336534;28;20806;-76
2023/04/13 13:05:42;;;;;;;0.10;0.10;;;;;;;-145.06;100.00;98882.78;10340173;28;20129;-76
2023/04/13 13:10:43;;;;;;;0.10;0.10;;;;;;;-145.06;100.00;99044.56;10338280;28;20023;-75
2023/04/13 13:15:43;;;;;;;0.10;0.10;;;;;;;-145.06;100.00;98989.28;10345086;28;20022;-75
2023/04/13 13:20:44;;;;;;;0.00;0.00;;;;;;;-145.06;100.00;99032.28;10331664;28;20261;-76
2023/04/13 13:25:45;;;;;;;0.10;0.10;;;;;;;-145.06;100.00;99017.94;10335080;28;21065;-76
2023/04/13 13:30:45;;;;;;;0.10;0.10;;;;;;;-145.06;95.57;98927.81;10331273;28;20036;-76
2023/04/13 13:35:45;;;;;;;0.10;0.10;;;;;;;-145.06;92.34;99091.69;10309992;28;20023;-76
2023/04/13 13:40:46;;;;;;;0.00;0.00;;;;;;;-145.06;92.39;99058.91;10324754;28;20473;-76
2023/04/13 13:45:47;;;;;;;0.10;0.10;;;;;;;-145.06;86.43;99138.78;10340034;28;20069;-74
2023/04/13 13:50:47;;;;;;;0.10;0.10;;;;;;;-145.06;97.60;99024.09;10312605;28;20025;-77
2023/04/13 13:55:50;;;;;;;0.10;0.10;;;;;;;-145.06;94.80;99124.44;10338808;28;20041;-77
2023/04/13 14:00:51;;;;;;;0.10;0.10;;;;;;;-145.06;99.22;99181.78;10329184;28;20022;-75
2023/04/13 14:05:51;;;;;;;0.10;0.10;;;;;;;-145.06;100.00;99116.25;10331659;28;20014;-76
2023/04/13 14:10:51;;;;;;;0.08;0.08;;;;;;;-145.06;100.00;99026.13;10335874;28;20045;-76
2023/04/13 14:15:52;;;;;;;0.00;0.00;;;;;;;-145.06;100.00;98962.66;10319098;28;20033;-76
2023/04/13 14:20:52;;;;;;;0.10;0.10;;;;;;;-145.06;100.00;99085.53;10351299;28;20165;-77
2023/04/13 14:25:52;;;;;;;0.10;0.10;;;;;;;-145.06;100.00;99015.91;10355311;28;20022;-77
2023/04/13 14:30:53;;;;;;;0.10;0.10;;;;;;;-145.06;100.00;98993.38;10340612;28;20385;-77
2023/04/13 14:35:53;;;;;;;0.10;0.10;;;;;;;-145.06;100.00;99032.28;10342987;28;20030;-78
2023/04/13 14:40:53;;;;;;;0.10;0.10;;;;;;;-145.06;100.00;98991.31;10322506;28;20348;-76
2023/04/13 14:45:54;;;;;;;0.00;0.00;;;;;;;-145.06;100.00;99146.97;10342865;28;20030;-75
2023/04/13 14:50:54;;;;;;;0.10;0.10;;;;;;;-145.06;100.00;99110.09;10342219;28;20022;-76
2023/04/13 14:55:56;;;;;;;0.10;0.10;;;;;;;-145.06;100.00;99126.50;10335331;28;20030;-77
2023/04/13 15:00:56;;;;;;;0.00;0.00;;;;;;;-145.06;100.00;99241.19;10350808;28;20327;-77
2023/04/13 15:05:58;;;;;;;0.10;0.10;;;;;;;-145.06;100.00;99146.97;10350394;28;20105;-76
2023/04/13 15:10:58;;;;;;;0.10;0.10;;;;;;;-145.06;100.00;99095.78;10349158;28;20048;-77
2023/04/13 15:15:58;;;;;;;0.10;0.10;;;;;;;-145.06;100.00;99065.06;10357799;28;20105;-78
2023/04/13 15:21:02;;;;;;;0.10;0.10;;;;;;;-145.06;100.00;99157.22;10363980;28;20266;-76
2023/04/13 15:31:12;;;;;;;0.00;0.00;;;;;;;-145.06;100.00;99114.19;10361286;28;20046;-77
2023/04/13 15:36:15;;;;;;;0.10;0.10;;;;;;;-145.06;100.00;99228.91;10350867;28;20025;-78
2023/04/13 15:41:18;;;;;;;0.10;0.10;;;;;;;-145.06;95.75;99269.88;10371602;28;20033;-76
2023/04/13 15:46:19;;;;;;;0.03;0.03;;;;;;;-145.06;97.85;99335.41;10400536;28;20018;-78
2023/04/13 15:51:20;;;;;;;0.10;0.10;;;;;;;-145.06;100.00;99325.16;10370174;28;20116;-77
2023/04/13 15:56:20;;;;;;;0.05;0.05;;;;;;;-145.06;100.00;99216.63;10378322;28;20030;-76
2023/04/13 16:01:21;;;;;;;0.10;0.10;;;;;;;-145.06;100.00;99310.84;10365997;28;20117;-76
2023/04/13 16:06:21;;;;;;;0.10;0.10;;;;;;;-145.06;100.00;99106.00;10335356;28;20020;-77
2023/04/13 16:11:21;;;;;;;0.10;0.10;;;;;;;-145.06;100.00;99245.28;10375489;28;20025;-76
2023/04/13 16:16:22;;;;;;;0.10;0.10;;;;;;;-145.06;100.00;99351.78;10369382;28;20022;-78
2023/04/13 16:21:23;;;;;;;0.00;0.00;;;;;;;-145.06;100.00;99446.03;10353203;28;20029;-76
2023/04/13 16:26:23;;;;;;;0.00;0.00;;;;;;;-145.06;100.00;99249.38;10388681;28;20029;-78
2023/04/13 16:31:24;;;;;;;0.10;0.10;;;;;;;-145.06;100.00;99200.22;10358206;28;20030;-78
2023/04/13 16:36:24;;;;;;;0.08;0.08;;;;;;;-145.06;100.00;99294.44;10399729;28;20100;-78
2023/04/13 16:41:25;;;;;;;0.10;0.10;;;;;;;-145.06;100.00;99341.56;10361120;28;20014;-76
2023/04/13 16:46:25;;;;;;;0.10;0.10;;;;;;;-145.06;100.00;99302.63;10374316;28;20077;-77
2023/04/13 16:51:26;;;;;;;0.10;0.10;;;;;;;-145.06;100.00;99273.97;10366015;28;20299;-77
2023/04/13 16:56:29;;;;;;;0.10;0.10;;;;;;;-145.06;100.00;99312.88;10356881;28;20102;-77
2023/04/13 17:01:30;;;;;;;0.00;0.00;;;;;;;-145.06;100.00;99269.88;10342006;28;20104;-76
2023/04/13 17:06:30;;;;;;;0.10;0.10;;;;;;;-145.06;100.00;99210.47;10397066;28;20037;-77
2023/04/13 17:11:30;;;;;;;0.10;0.10;;;;;;;-145.06;100.00;99247.34;10371407;28;20113;-78
2023/04/13 17:16:31;;;;;;;0.10;0.10;;;;;;;-145.06;100.00;99306.72;10383256;28;20022;-77
2023/04/13 17:21:31;;;;;;;0.10;0.10;;;;;;;-145.06;100.00;99343.59;10345895;28;20022;-77
2023/04/13 17:26:31;;;;;;;0.10;0.10;;;;;;;-145.06;100.00;99446.03;10384253;28;20046;-77
2023/04/13 17:31:32;;;;;;;0.00;0.00;;;;;;;-145.06;100.00;99446.03;10359855;28;20088;-78
2023/04/13 17:36:32;;;;;;;0.10;0.10;;;;;;;-145.06;100.00;99486.97;10328264;28;20042;-77
2023/04/13 17:41:33;;;;;;;0.10;0.10;;;;;;;-145.06;100.00;99351.78;10400548;28;20032;-78
2023/04/13 17:46:33;;;;;;;0.10;0.10;;;;;;;-145.06;100.00;99398.91;10401116;28;20086;-77
2023/04/13 17:51:34;;;;;;;0.10;0.10;;;;;;;-145.06;100.00;99513.63;10413378;28;20052;-77
2023/04/13 17:56:34;;;;;;;0.03;0.03;;;;;;;-145.06;100.00;99382.53;10392168;28;20049;-76
2023/04/13 18:01:34;;;;;;;0.10;0.10;;;;;;;-145.06;100.00;99433.72;10370562;28;20053;-76
2023/04/13 18:06:35;;;;;;;0.00;0.00;;;;;;;-145.06;100.00;99493.13;10380058;28;20318;-73
2023/04/13 18:11:35;;;;;;;0.00;0.00;;;;;;;-145.06;100.00;99530.00;10340099;28;20113;-74
2023/04/13 18:16:35;;;;;;;0.00;0.00;;;;;;;-145.06;100.00;99661.09;10375837;28;20072;-76
2023/04/13 18:21:36;;;;;;;0.00;0.00;;;;;;;-145.06;100.00;99630.38;10394009;28;20026;-76
2023/04/13 18:26:36;;;;;;;0.00;0.00;;;;;;;-145.06;100.00;99624.22;10374318;28;20723;-76
2023/04/13 18:31:37;;;;;;;0.00;0.00;;;;;;;-145.06;100.00;99638.56;10403081;28;20026;-76
2023/04/13 18:36:38;;;;;;;0.00;0.00;;;;;;;-145.06;100.00;99620.13;10380706;28;20123;-76
2023/04/13 18:41:38;;;;;;;0.10;0.10;;;;;;;-145.06;100.00;99681.59;10379938;28;20030;-78
2023/04/13 18:46:39;;;;;;;0.00;0.00;;;;;;;-145.06;100.00;99523.84;10367356;28;20282;-77
2023/04/13 18:51:40;;;;;;;0.05;0.05;;;;;;;-145.06;100.00;99544.34;10372304;28;20109;-77
2023/04/13 18:56:40;;;;;;;0.00;0.00;;;;;;;-145.06;100.00;99616.03;10340928;28;20560;-77
2023/04/13 19:01:40;;;;;;;0.00;0.00;;;;;;;-145.06;100.00;99601.69;10343263;28;20031;-77
2023/04/13 19:06:40;;;;;;;0.03;0.03;;;;;;;-145.06;100.00;99624.22;10382625;28;20021;-76
2023/04/13 19:11:50;;;;;;;0.00;0.00;;;;;;;-145.06;100.00;99568.91;10383408;28;20037;-76
2023/04/13 19:16:51;;;;;;;0.10;0.10;;;;;;;-145.06;100.00;99691.81;10385386;28;20026;-76
2023/04/13 19:21:52;;;;;;;0.00;0.00;;;;;;;-145.06;100.00;99566.88;10385805;28;20029;-77
2023/04/13 19:26:54;;;;;;;0.08;0.08;;;;;;;-145.06;100.00;99734.84;10386445;28;20088;-76
2023/04/13 19:31:55;;;;;;;0.00;0.00;;;;;;;-145.06;100.00;99495.19;10367959;28;20038;-77
2023/04/13 19:36:55;;;;;;;0.00;0.00;;;;;;;-145.06;100.00;99452.16;10385465;28;20029;-77
2023/04/13 19:41:55;;;;;;;0.00;0.00;;;;;;;-145.06;100.00;99552.53;10385493;28;20473;-76
2023/04/13 19:46:56;;;;;;;0.00;0.00;;;;;;;-145.06;100.00;99513.63;10385001;28;20448;-76
2023/04/13 19:51:56;;;;;;;0.00;0.00;;;;;;;-145.06;100.00;99491.09;10384239;28;20508;-76
2023/04/13 19:56:56;;;;;;;0.00;0.00;;;;;;;-145.06;100.00;99540.25;10365938;28;20703;-77
2023/04/13 20:01:57;;;;;;;0.00;0.00;;;;;;;-145.06;100.00;99546.38;10384758;28;20041;-78
2023/04/13 20:07:00;;;;;;;0.00;0.00;;;;;;;-145.06;100.00;99497.22;10362776;28;20258;-76
2023/04/13 20:12:04;;;;;;;0.00;0.00;;;;;;;-145.06;100.00;99505.41;10337216;28;20034;-77
2023/04/13 20:17:04;;;;;;;0.00;0.00;;;;;;;-145.06;100.00;99515.66;10345923;28;20477;-77
2023/04/13 20:22:05;;;;;;;0.00;0.00;;;;;;;-145.06;100.00;99489.03;10377051;28;20109;-76
2023/04/13 20:27:07;;;;;;;0.00;0.00;;;;;;;-145.06;100.00;99503.38;10375936;28;20401;-75
2023/04/13 20:32:08;;;;;;;0.00;0.00;;;;;;;-145.06;100.00;99523.84;10376061;28;20413;-77
2023/04/13 20:37:09;;;;;;;0.00;0.00;;;;;;;-145.06;100.00;99462.41;10377253;28;20030;-76
2023/04/13 20:42:10;;;;;;;0.00;0.00;;;;;;;-145.06;100.00;99429.63;10377667;28;20018;-77
2023/04/13 20:47:14;;;;;;;0.22;0.20;;;;;;;-145.06;100.00;99448.06;10376982;28;20014;-77
2023/04/13 20:52:16;;;;;;;0.07;0.07;;;;;;;-145.06;100.00;99486.97;10375266;28;20028;-77
2023/04/13 20:57:20;;;;;;;0.00;0.00;;;;;;;-145.06;100.00;99538.19;10375767;28;20298;-77
2023/04/13 21:02:21;;;;;;;0.00;0.00;;;;;;;-145.06;100.00;99573.00;10373982;28;20084;-77
2023/04/13 21:07:26;;;;;;;0.00;0.00;;;;;;;-145.06;100.00;99462.41;10373951;28;20097;-75
2023/04/13 21:12:26;;;;;;;0.00;0.00;;;;;;;-145.06;100.00;99523.84;10375666;28;20034;-77
2023/04/13 21:17:28;;;;;;;0.00;0.00;;;;;;;-145.06;100.00;99583.25;10380691;28;20494;-77
2023/04/13 21:22:29;;;;;;;0.00;0.00;;;;;;;-145.06;100.00;99642.66;10382998;28;20277;-77
2023/04/13 21:32:34;;;;;;;0.00;0.00;;;;;;;-145.06;100.00;99542.28;10393217;28;20069;-77
2023/04/13 21:37:34;;;;;;;0.00;0.00;;;;;;;-145.06;100.00;99530.00;10385225;28;20026;-78
2023/04/13 21:42:36;;;;;;;0.00;0.00;;;;;;;-145.06;100.00;99577.13;10375762;28;20465;-77
2023/04/13 21:47:36;;;;;;;0.00;0.00;;;;;;;-145.06;100.00;99566.88;10399170;28;20045;-77
2023/04/13 21:52:36;;;;;;;0.00;0.00;;;;;;;-145.06;100.00;99634.47;10390226;28;20018;-77
2023/04/13 21:57:37;;;;;;;0.00;0.00;;;;;;;-145.06;100.00;99620.13;10391511;28;20484;-78
2023/04/13 22:02:37;;;;;;;0.00;0.00;;;;;;;-145.06;100.00;99609.88;10397900;28;20265;-78
2023/04/13 22:07:39;;;;;;;0.00;0.00;;;;;;;-145.06;100.00;99681.59;10409289;28;20299;-78
2023/04/13 22:12:39;;;;;;;0.00;0.00;;;;;;;-145.06;100.00;99616.03;10389998;28;20022;-78
2023/04/13 22:17:40;;;;;;;0.00;0.00;;;;;;;-145.06;100.00;99640.63;10407400;28;20018;-77
2023/04/13 22:22:40;;;;;;;0.00;0.00;;;;;;;-145.06;100.00;99661.09;10384671;28;20041;-78
2023/04/13 22:27:40;;;;;;;0.00;0.00;;;;;;;-145.06;100.00;99654.94;10390599;28;20053;-78
2023/04/13 22:32:41;;;;;;;0.00;0.00;;;;;;;-145.06;100.00;99665.19;10416084;28;20140;-78
2023/04/13 22:37:41;;;;;;;0.10;0.10;;;;;;;-145.06;100.00;99712.31;10399922;28;20704;-78
2023/04/13 22:42:42;;;;;;;0.00;0.00;;;;;;;-145.06;100.00;99654.94;10378103;28;20374;-78